sensor_id;sensor_type;location;lat;lon;timestamp;P1;durP1;ratioP1;P2;durP2;ratioP2
63906;SDS011;50075;49.484;11.238;2023-03-12T00:01:10;135.90;;;9.23;;
63906;SDS011;50075;49.484;11.238;2023-03-12T00:03:35;165.63;;;10.40;;
63906;SDS011;50075;49.484;11.238;2023-03-12T00:06:01;148.68;;;9.68;;
63906;SDS011;50075;49.484;11.238;2023-03-12T00:08:27;152.98;;;9.48;;
63906;SDS011;50075;49.484;11.238;2023-03-12T00:10:52;147.77;;;9.82;;
63906;SDS011;50075;49.484;11.238;2023-03-12T00:13:17;165.10;;;9.52;;
63906;SDS011;50075;49.484;11.238;2023-03-12T00:15:42;159.25;;;10.40;;
63906;SDS011;50075;49.484;11.238;2023-03-12T00:18:07;141.13;;;9.45;;
63906;SDS011;50075;49.484;11.238;2023-03-12T00:20:33;142.65;;;9.48;;
63906;SDS011;50075;49.484;11.238;2023-03-12T00:22:58;146.70;;;9.30;;
63906;SDS011;50075;49.484;11.238;2023-03-12T00:25:23;128.20;;;9.30;;
63906;SDS011;50075;49.484;11.238;2023-03-12T00:27:49;109.03;;;7.85;;
63906;SDS011;50075;49.484;11.238;2023-03-12T00:30:14;149.05;;;9.02;;
63906;SDS011;50075;49.484;11.238;2023-03-12T00:32:39;120.93;;;8.82;;
63906;SDS011;50075;49.484;11.238;2023-03-12T00:35:05;117.57;;;8.98;;
63906;SDS011;50075;49.484;11.238;2023-03-12T00:37:30;127.38;;;8.40;;
63906;SDS011;50075;49.484;11.238;2023-03-12T00:39:57;145.18;;;9.55;;
63906;SDS011;50075;49.484;11.238;2023-03-12T00:42:22;146.43;;;10.05;;
63906;SDS011;50075;49.484;11.238;2023-03-12T00:44:47;178.93;;;9.73;;
63906;SDS011;50075;49.484;11.238;2023-03-12T00:47:13;136.00;;;8.93;;
63906;SDS011;50075;49.484;11.238;2023-03-12T00:49:38;152.63;;;9.05;;
63906;SDS011;50075;49.484;11.238;2023-03-12T00:52:03;123.32;;;8.88;;
63906;SDS011;50075;49.484;11.238;2023-03-12T00:54:29;144.40;;;9.73;;
63906;SDS011;50075;49.484;11.238;2023-03-12T00:56:54;140.32;;;9.77;;
63906;SDS011;50075;49.484;11.238;2023-03-12T00:59:19;152.73;;;10.07;;
63906;SDS011;50075;49.484;11.238;2023-03-12T01:01:45;169.90;;;10.82;;
63906;SDS011;50075;49.484;11.238;2023-03-12T01:04:10;133.82;;;10.18;;
63906;SDS011;50075;49.484;11.238;2023-03-12T01:06:35;146.20;;;9.48;;
63906;SDS011;50075;49.484;11.238;2023-03-12T01:09:01;183.32;;;11.00;;
63906;SDS011;50075;49.484;11.238;2023-03-12T01:11:26;159.57;;;10.50;;
63906;SDS011;50075;49.484;11.238;2023-03-12T01:13:52;158.30;;;10.52;;
63906;SDS011;50075;49.484;11.238;2023-03-12T01:16:17;166.02;;;11.73;;
63906;SDS011;50075;49.484;11.238;2023-03-12T01:18:42;151.98;;;10.68;;
63906;SDS011;50075;49.484;11.238;2023-03-12T01:21:07;171.30;;;11.57;;
63906;SDS011;50075;49.484;11.238;2023-03-12T01:23:33;148.68;;;11.10;;
63906;SDS011;50075;49.484;11.238;2023-03-12T01:25:58;147.10;;;11.13;;
63906;SDS011;50075;49.484;11.238;2023-03-12T01:28:24;181.30;;;11.60;;
63906;SDS011;50075;49.484;11.238;2023-03-12T01:30:49;157.88;;;10.48;;
63906;SDS011;50075;49.484;11.238;2023-03-12T01:33:14;142.48;;;9.05;;
63906;SDS011;50075;49.484;11.238;2023-03-12T01:35:41;160.05;;;10.32;;
63906;SDS011;50075;49.484;11.238;2023-03-12T01:38:07;143.38;;;9.82;;
63906;SDS011;50075;49.484;11.238;2023-03-12T01:40:33;152.75;;;10.65;;
63906;SDS011;50075;49.484;11.238;2023-03-12T01:43:13;147.73;;;10.95;;
63906;SDS011;50075;49.484;11.238;2023-03-12T01:48:19;180.70;;;11.27;;
63906;SDS011;50075;49.484;11.238;2023-03-12T01:50:44;174.82;;;11.05;;
63906;SDS011;50075;49.484;11.238;2023-03-12T01:53:10;130.18;;;7.88;;
63906;SDS011;50075;49.484;11.238;2023-03-12T01:55:35;146.07;;;9.95;;
63906;SDS011;50075;49.484;11.238;2023-03-12T01:58:00;196.27;;;11.15;;
63906;SDS011;50075;49.484;11.238;2023-03-12T02:00:26;137.80;;;9.07;;
63906;SDS011;50075;49.484;11.238;2023-03-12T02:02:52;148.80;;;10.70;;
63906;SDS011;50075;49.484;11.238;2023-03-12T02:05:21;194.50;;;12.27;;
63906;SDS011;50075;49.484;11.238;2023-03-12T02:07:49;134.80;;;8.88;;
63906;SDS011;50075;49.484;11.238;2023-03-12T02:10:14;165.02;;;9.75;;
63906;SDS011;50075;49.484;11.238;2023-03-12T02:12:40;140.77;;;9.40;;
63906;SDS011;50075;49.484;11.238;2023-03-12T02:15:05;167.57;;;9.95;;
63906;SDS011;50075;49.484;11.238;2023-03-12T02:17:31;163.05;;;7.53;;
63906;SDS011;50075;49.484;11.238;2023-03-12T02:22:24;173.68;;;10.63;;
63906;SDS011;50075;49.484;11.238;2023-03-12T02:24:56;211.85;;;11.52;;
63906;SDS011;50075;49.484;11.238;2023-03-12T02:27:26;129.50;;;9.15;;
63906;SDS011;50075;49.484;11.238;2023-03-12T02:29:51;295.67;;;14.60;;
63906;SDS011;50075;49.484;11.238;2023-03-12T02:32:19;149.27;;;10.10;;
63906;SDS011;50075;49.484;11.238;2023-03-12T02:34:45;230.35;;;12.35;;
63906;SDS011;50075;49.484;11.238;2023-03-12T02:37:12;151.23;;;10.25;;
63906;SDS011;50075;49.484;11.238;2023-03-12T02:39:37;143.00;;;9.05;;
63906;SDS011;50075;49.484;11.238;2023-03-12T02:42:03;170.73;;;10.38;;
63906;SDS011;50075;49.484;11.238;2023-03-12T02:44:29;168.98;;;11.23;;
63906;SDS011;50075;49.484;11.238;2023-03-12T02:46:56;155.68;;;10.63;;
63906;SDS011;50075;49.484;11.238;2023-03-12T02:49:22;124.88;;;8.90;;
63906;SDS011;50075;49.484;11.238;2023-03-12T02:51:48;150.70;;;8.93;;
63906;SDS011;50075;49.484;11.238;2023-03-12T02:54:14;212.65;;;11.27;;
63906;SDS011;50075;49.484;11.238;2023-03-12T02:56:39;149.35;;;8.82;;
63906;SDS011;50075;49.484;11.238;2023-03-12T02:59:05;149.43;;;8.55;;
63906;SDS011;50075;49.484;11.238;2023-03-12T03:01:30;176.25;;;10.60;;
63906;SDS011;50075;49.484;11.238;2023-03-12T03:04:02;159.05;;;9.93;;
63906;SDS011;50075;49.484;11.238;2023-03-12T03:06:28;195.75;;;10.30;;
63906;SDS011;50075;49.484;11.238;2023-03-12T03:08:53;142.30;;;9.32;;
63906;SDS011;50075;49.484;11.238;2023-03-12T03:11:19;156.68;;;9.68;;
63906;SDS011;50075;49.484;11.238;2023-03-12T03:13:48;182.10;;;9.80;;
63906;SDS011;50075;49.484;11.238;2023-03-12T03:16:13;168.10;;;9.73;;
63906;SDS011;50075;49.484;11.238;2023-03-12T03:18:38;140.35;;;9.32;;
63906;SDS011;50075;49.484;11.238;2023-03-12T03:21:04;141.63;;;8.52;;
63906;SDS011;50075;49.484;11.238;2023-03-12T03:23:30;161.70;;;9.25;;
63906;SDS011;50075;49.484;11.238;2023-03-12T03:25:56;237.45;;;10.32;;
63906;SDS011;50075;49.484;11.238;2023-03-12T03:28:22;224.68;;;10.30;;
63906;SDS011;50075;49.484;11.238;2023-03-12T03:30:48;145.63;;;8.52;;
63906;SDS011;50075;49.484;11.238;2023-03-12T03:33:13;170.65;;;9.68;;
63906;SDS011;50075;49.484;11.238;2023-03-12T03:35:38;163.60;;;7.88;;
63906;SDS011;50075;49.484;11.238;2023-03-12T03:38:03;208.95;;;10.38;;
63906;SDS011;50075;49.484;11.238;2023-03-12T03:40:29;189.68;;;9.98;;
63906;SDS011;50075;49.484;11.238;2023-03-12T03:42:54;176.55;;;9.43;;
63906;SDS011;50075;49.484;11.238;2023-03-12T03:45:19;172.23;;;8.82;;
63906;SDS011;50075;49.484;11.238;2023-03-12T03:47:45;164.98;;;9.50;;
63906;SDS011;50075;49.484;11.238;2023-03-12T03:50:10;159.32;;;9.85;;
63906;SDS011;50075;49.484;11.238;2023-03-12T03:52:35;181.43;;;10.00;;
63906;SDS011;50075;49.484;11.238;2023-03-12T03:55:01;145.20;;;8.35;;
63906;SDS011;50075;49.484;11.238;2023-03-12T03:57:26;159.93;;;8.85;;
63906;SDS011;50075;49.484;11.238;2023-03-12T03:59:51;197.20;;;10.18;;
63906;SDS011;50075;49.484;11.238;2023-03-12T04:02:17;146.38;;;8.27;;
63906;SDS011;50075;49.484;11.238;2023-03-12T04:04:42;229.50;;;11.20;;
63906;SDS011;50075;49.484;11.238;2023-03-12T04:07:08;149.00;;;8.13;;
63906;SDS011;50075;49.484;11.238;2023-03-12T04:09:33;142.55;;;8.48;;
63906;SDS011;50075;49.484;11.238;2023-03-12T04:11:58;164.10;;;7.32;;
63906;SDS011;50075;49.484;11.238;2023-03-12T04:14:23;163.60;;;8.98;;
63906;SDS011;50075;49.484;11.238;2023-03-12T04:16:49;137.48;;;8.75;;
63906;SDS011;50075;49.484;11.238;2023-03-12T04:19:14;171.43;;;8.43;;
63906;SDS011;50075;49.484;11.238;2023-03-12T04:21:39;143.02;;;7.45;;
63906;SDS011;50075;49.484;11.238;2023-03-12T04:24:05;163.18;;;9.48;;
63906;SDS011;50075;49.484;11.238;2023-03-12T04:26:30;177.07;;;8.65;;
63906;SDS011;50075;49.484;11.238;2023-03-12T04:28:56;169.48;;;10.13;;
63906;SDS011;50075;49.484;11.238;2023-03-12T04:31:21;183.25;;;10.15;;
63906;SDS011;50075;49.484;11.238;2023-03-12T04:33:46;170.40;;;9.60;;
63906;SDS011;50075;49.484;11.238;2023-03-12T04:36:12;345.20;;;16.08;;
63906;SDS011;50075;49.484;11.238;2023-03-12T04:38:38;191.13;;;10.68;;
63906;SDS011;50075;49.484;11.238;2023-03-12T04:41:04;175.85;;;9.40;;
63906;SDS011;50075;49.484;11.238;2023-03-12T04:43:31;136.57;;;7.15;;
63906;SDS011;50075;49.484;11.238;2023-03-12T04:45:56;167.18;;;9.82;;
63906;SDS011;50075;49.484;11.238;2023-03-12T04:48:22;163.25;;;9.48;;
63906;SDS011;50075;49.484;11.238;2023-03-12T04:50:48;163.70;;;9.38;;
63906;SDS011;50075;49.484;11.238;2023-03-12T04:53:13;145.02;;;9.13;;
63906;SDS011;50075;49.484;11.238;2023-03-12T04:55:38;132.77;;;8.35;;
63906;SDS011;50075;49.484;11.238;2023-03-12T04:58:03;195.55;;;10.15;;
63906;SDS011;50075;49.484;11.238;2023-03-12T05:00:29;148.15;;;8.07;;
63906;SDS011;50075;49.484;11.238;2023-03-12T05:02:54;134.20;;;7.55;;
63906;SDS011;50075;49.484;11.238;2023-03-12T05:05:19;185.40;;;8.77;;
63906;SDS011;50075;49.484;11.238;2023-03-12T05:07:45;146.75;;;8.52;;
63906;SDS011;50075;49.484;11.238;2023-03-12T05:10:10;141.18;;;8.68;;
63906;SDS011;50075;49.484;11.238;2023-03-12T05:12:35;184.25;;;9.77;;
63906;SDS011;50075;49.484;11.238;2023-03-12T05:15:00;161.32;;;8.35;;
63906;SDS011;50075;49.484;11.238;2023-03-12T05:17:25;178.95;;;9.07;;
63906;SDS011;50075;49.484;11.238;2023-03-12T05:19:51;139.10;;;8.30;;
63906;SDS011;50075;49.484;11.238;2023-03-12T05:22:16;139.00;;;8.77;;
63906;SDS011;50075;49.484;11.238;2023-03-12T05:24:42;269.05;;;13.07;;
63906;SDS011;50075;49.484;11.238;2023-03-12T05:27:07;149.50;;;8.82;;
63906;SDS011;50075;49.484;11.238;2023-03-12T05:29:33;152.98;;;9.57;;
63906;SDS011;50075;49.484;11.238;2023-03-12T05:31:59;198.18;;;9.05;;
63906;SDS011;50075;49.484;11.238;2023-03-12T05:34:25;136.30;;;8.23;;
63906;SDS011;50075;49.484;11.238;2023-03-12T05:36:50;160.68;;;8.63;;
63906;SDS011;50075;49.484;11.238;2023-03-12T05:39:15;145.75;;;8.77;;
63906;SDS011;50075;49.484;11.238;2023-03-12T05:41:41;147.55;;;8.02;;
63906;SDS011;50075;49.484;11.238;2023-03-12T05:44:06;191.27;;;9.25;;
63906;SDS011;50075;49.484;11.238;2023-03-12T05:46:31;141.70;;;7.93;;
63906;SDS011;50075;49.484;11.238;2023-03-12T05:48:57;144.15;;;8.10;;
63906;SDS011;50075;49.484;11.238;2023-03-12T05:51:22;169.73;;;10.10;;
63906;SDS011;50075;49.484;11.238;2023-03-12T05:53:47;132.57;;;8.10;;
63906;SDS011;50075;49.484;11.238;2023-03-12T05:56:14;145.68;;;8.07;;
63906;SDS011;50075;49.484;11.238;2023-03-12T05:58:39;138.60;;;8.52;;
63906;SDS011;50075;49.484;11.238;2023-03-12T06:01:19;155.95;;;9.32;;
63906;SDS011;50075;49.484;11.238;2023-03-12T06:03:44;141.73;;;8.57;;
63906;SDS011;50075;49.484;11.238;2023-03-12T06:06:10;160.35;;;9.25;;
63906;SDS011;50075;49.484;11.238;2023-03-12T06:08:35;147.15;;;9.10;;
63906;SDS011;50075;49.484;11.238;2023-03-12T06:11:00;160.65;;;8.93;;
63906;SDS011;50075;49.484;11.238;2023-03-12T06:13:25;143.32;;;7.28;;
63906;SDS011;50075;49.484;11.238;2023-03-12T06:15:52;173.98;;;9.00;;
63906;SDS011;50075;49.484;11.238;2023-03-12T06:18:17;162.85;;;9.10;;
63906;SDS011;50075;49.484;11.238;2023-03-12T06:20:42;172.68;;;8.93;;
63906;SDS011;50075;49.484;11.238;2023-03-12T06:23:08;189.05;;;9.95;;
63906;SDS011;50075;49.484;11.238;2023-03-12T06:25:33;153.80;;;7.93;;
63906;SDS011;50075;49.484;11.238;2023-03-12T06:27:58;134.27;;;8.18;;
63906;SDS011;50075;49.484;11.238;2023-03-12T06:30:23;116.35;;;7.47;;
63906;SDS011;50075;49.484;11.238;2023-03-12T06:32:48;114.57;;;7.10;;
63906;SDS011;50075;49.484;11.238;2023-03-12T06:35:14;156.95;;;8.18;;
63906;SDS011;50075;49.484;11.238;2023-03-12T06:37:39;132.93;;;8.05;;
63906;SDS011;50075;49.484;11.238;2023-03-12T06:40:04;122.32;;;7.63;;
63906;SDS011;50075;49.484;11.238;2023-03-12T06:42:33;160.15;;;8.23;;
63906;SDS011;50075;49.484;11.238;2023-03-12T06:44:59;135.00;;;8.20;;
63906;SDS011;50075;49.484;11.238;2023-03-12T06:47:24;132.60;;;7.90;;
63906;SDS011;50075;49.484;11.238;2023-03-12T06:49:49;138.50;;;7.68;;
63906;SDS011;50075;49.484;11.238;2023-03-12T06:52:14;121.67;;;6.77;;
63906;SDS011;50075;49.484;11.238;2023-03-12T06:54:40;195.87;;;9.47;;
63906;SDS011;50075;49.484;11.238;2023-03-12T06:57:05;146.32;;;8.70;;
63906;SDS011;50075;49.484;11.238;2023-03-12T06:59:30;116.10;;;7.07;;
63906;SDS011;50075;49.484;11.238;2023-03-12T07:01:55;142.93;;;8.27;;
63906;SDS011;50075;49.484;11.238;2023-03-12T07:04:21;104.32;;;6.95;;
63906;SDS011;50075;49.484;11.238;2023-03-12T07:06:46;126.95;;;8.00;;
63906;SDS011;50075;49.484;11.238;2023-03-12T07:09:16;120.32;;;7.28;;
63906;SDS011;50075;49.484;11.238;2023-03-12T07:11:42;114.32;;;6.40;;
63906;SDS011;50075;49.484;11.238;2023-03-12T07:14:07;115.33;;;6.40;;
63906;SDS011;50075;49.484;11.238;2023-03-12T07:16:32;122.35;;;6.15;;
63906;SDS011;50075;49.484;11.238;2023-03-12T07:18:58;114.82;;;5.78;;
63906;SDS011;50075;49.484;11.238;2023-03-12T07:21:24;137.45;;;7.00;;
63906;SDS011;50075;49.484;11.238;2023-03-12T07:23:49;102.93;;;6.65;;
63906;SDS011;50075;49.484;11.238;2023-03-12T07:26:14;97.85;;;5.85;;
63906;SDS011;50075;49.484;11.238;2023-03-12T07:28:40;116.38;;;6.15;;
63906;SDS011;50075;49.484;11.238;2023-03-12T07:31:05;129.75;;;7.50;;
63906;SDS011;50075;49.484;11.238;2023-03-12T07:33:31;131.48;;;7.18;;
63906;SDS011;50075;49.484;11.238;2023-03-12T07:35:56;113.22;;;6.63;;
63906;SDS011;50075;49.484;11.238;2023-03-12T07:38:21;128.82;;;8.02;;
63906;SDS011;50075;49.484;11.238;2023-03-12T07:40:50;150.07;;;7.45;;
63906;SDS011;50075;49.484;11.238;2023-03-12T07:43:16;119.97;;;8.05;;
63906;SDS011;50075;49.484;11.238;2023-03-12T07:45:41;307.67;;;14.57;;
63906;SDS011;50075;49.484;11.238;2023-03-12T07:48:06;141.90;;;8.15;;
63906;SDS011;50075;49.484;11.238;2023-03-12T07:50:32;120.55;;;7.07;;
63906;SDS011;50075;49.484;11.238;2023-03-12T07:52:57;154.85;;;7.65;;
63906;SDS011;50075;49.484;11.238;2023-03-12T07:55:22;130.65;;;6.88;;
63906;SDS011;50075;49.484;11.238;2023-03-12T07:57:48;119.40;;;6.40;;
63906;SDS011;50075;49.484;11.238;2023-03-12T08:00:13;150.30;;;7.97;;
63906;SDS011;50075;49.484;11.238;2023-03-12T08:02:39;126.55;;;6.68;;
63906;SDS011;50075;49.484;11.238;2023-03-12T08:05:04;102.43;;;5.78;;
63906;SDS011;50075;49.484;11.238;2023-03-12T08:07:30;97.13;;;6.28;;
63906;SDS011;50075;49.484;11.238;2023-03-12T08:09:59;96.25;;;5.18;;
63906;SDS011;50075;49.484;11.238;2023-03-12T08:12:24;114.70;;;6.28;;
63906;SDS011;50075;49.484;11.238;2023-03-12T08:14:49;126.85;;;6.10;;
63906;SDS011;50075;49.484;11.238;2023-03-12T08:17:14;122.73;;;6.90;;
63906;SDS011;50075;49.484;11.238;2023-03-12T08:19:40;115.73;;;5.97;;
63906;SDS011;50075;49.484;11.238;2023-03-12T08:22:06;91.82;;;5.00;;
63906;SDS011;50075;49.484;11.238;2023-03-12T08:24:31;137.13;;;6.47;;
63906;SDS011;50075;49.484;11.238;2023-03-12T08:26:57;110.53;;;6.13;;
63906;SDS011;50075;49.484;11.238;2023-03-12T08:29:22;82.43;;;5.03;;
63906;SDS011;50075;49.484;11.238;2023-03-12T08:31:47;122.18;;;5.65;;
63906;SDS011;50075;49.484;11.238;2023-03-12T08:34:12;114.15;;;6.47;;
63906;SDS011;50075;49.484;11.238;2023-03-12T08:36:38;111.78;;;5.38;;
63906;SDS011;50075;49.484;11.238;2023-03-12T08:39:03;133.47;;;6.40;;
63906;SDS011;50075;49.484;11.238;2023-03-12T08:41:28;84.57;;;5.00;;
63906;SDS011;50075;49.484;11.238;2023-03-12T08:43:54;103.13;;;5.18;;
63906;SDS011;50075;49.484;11.238;2023-03-12T08:46:19;101.60;;;4.82;;
63906;SDS011;50075;49.484;11.238;2023-03-12T08:48:44;94.27;;;5.63;;
63906;SDS011;50075;49.484;11.238;2023-03-12T08:51:10;113.35;;;5.20;;
63906;SDS011;50075;49.484;11.238;2023-03-12T08:53:35;90.63;;;4.53;;
63906;SDS011;50075;49.484;11.238;2023-03-12T08:56:01;83.40;;;4.60;;
63906;SDS011;50075;49.484;11.238;2023-03-12T08:58:26;107.20;;;5.00;;
63906;SDS011;50075;49.484;11.238;2023-03-12T09:00:52;78.40;;;4.03;;
63906;SDS011;50075;49.484;11.238;2023-03-12T09:03:18;116.13;;;6.60;;
63906;SDS011;50075;49.484;11.238;2023-03-12T09:05:43;120.50;;;6.28;;
63906;SDS011;50075;49.484;11.238;2023-03-12T09:08:09;122.43;;;5.65;;
63906;SDS011;50075;49.484;11.238;2023-03-12T09:10:35;93.95;;;4.95;;
63906;SDS011;50075;49.484;11.238;2023-03-12T09:13:01;72.15;;;4.30;;
63906;SDS011;50075;49.484;11.238;2023-03-12T09:15:26;96.28;;;5.35;;
63906;SDS011;50075;49.484;11.238;2023-03-12T09:17:52;108.45;;;5.75;;
63906;SDS011;50075;49.484;11.238;2023-03-12T09:20:18;98.70;;;5.07;;
63906;SDS011;50075;49.484;11.238;2023-03-12T09:22:43;95.85;;;5.15;;
63906;SDS011;50075;49.484;11.238;2023-03-12T09:25:09;110.25;;;5.82;;
63906;SDS011;50075;49.484;11.238;2023-03-12T09:27:39;96.10;;;5.70;;
63906;SDS011;50075;49.484;11.238;2023-03-12T09:30:05;73.30;;;4.20;;
63906;SDS011;50075;49.484;11.238;2023-03-12T09:32:30;80.10;;;4.32;;
63906;SDS011;50075;49.484;11.238;2023-03-12T09:34:56;102.75;;;5.88;;
63906;SDS011;50075;49.484;11.238;2023-03-12T09:37:21;119.40;;;6.15;;
63906;SDS011;50075;49.484;11.238;2023-03-12T09:39:48;90.00;;;4.85;;
63906;SDS011;50075;49.484;11.238;2023-03-12T09:42:15;72.10;;;3.97;;
63906;SDS011;50075;49.484;11.238;2023-03-12T09:44:43;163.35;;;7.38;;
63906;SDS011;50075;49.484;11.238;2023-03-12T09:47:20;101.32;;;5.72;;
63906;SDS011;50075;49.484;11.238;2023-03-12T09:49:52;126.43;;;6.40;;
63906;SDS011;50075;49.484;11.238;2023-03-12T09:54:54;160.97;;;7.10;;
63906;SDS011;50075;49.484;11.238;2023-03-12T09:57:22;91.65;;;4.63;;
63906;SDS011;50075;49.484;11.238;2023-03-12T09:59:48;120.00;;;5.70;;
63906;SDS011;50075;49.484;11.238;2023-03-12T10:02:21;97.20;;;5.05;;
63906;SDS011;50075;49.484;11.238;2023-03-12T10:05:11;141.32;;;6.45;;
63906;SDS011;50075;49.484;11.238;2023-03-12T10:07:44;169.73;;;6.82;;
63906;SDS011;50075;49.484;11.238;2023-03-12T10:23:04;89.20;;;4.65;;
63906;SDS011;50075;49.484;11.238;2023-03-12T10:25:41;110.60;;;5.63;;
63906;SDS011;50075;49.484;11.238;2023-03-12T10:30:37;141.57;;;6.50;;
63906;SDS011;50075;49.484;11.238;2023-03-12T10:33:05;95.25;;;5.28;;
63906;SDS011;50075;49.484;11.238;2023-03-12T10:35:34;107.15;;;6.03;;
63906;SDS011;50075;49.484;11.238;2023-03-12T10:38:03;97.13;;;5.20;;
63906;SDS011;50075;49.484;11.238;2023-03-12T10:40:33;93.05;;;5.05;;
63906;SDS011;50075;49.484;11.238;2023-03-12T10:42:59;97.40;;;5.30;;
63906;SDS011;50075;49.484;11.238;2023-03-12T10:47:54;94.57;;;4.90;;
63906;SDS011;50075;49.484;11.238;2023-03-12T10:52:47;96.47;;;5.37;;
63906;SDS011;50075;49.484;11.238;2023-03-12T10:57:44;131.35;;;6.45;;
63906;SDS011;50075;49.484;11.238;2023-03-12T11:00:16;132.48;;;6.40;;
63906;SDS011;50075;49.484;11.238;2023-03-12T11:02:43;92.38;;;5.25;;
63906;SDS011;50075;49.484;11.238;2023-03-12T11:05:26;121.40;;;5.93;;
63906;SDS011;50075;49.484;11.238;2023-03-12T11:07:53;92.30;;;5.32;;
63906;SDS011;50075;49.484;11.238;2023-03-12T11:10:20;106.20;;;6.15;;
63906;SDS011;50075;49.484;11.238;2023-03-12T11:13:02;110.13;;;5.63;;
63906;SDS011;50075;49.484;11.238;2023-03-12T11:15:38;124.40;;;5.20;;
63906;SDS011;50075;49.484;11.238;2023-03-12T11:18:17;105.85;;;5.50;;
63906;SDS011;50075;49.484;11.238;2023-03-12T11:20:42;153.38;;;7.18;;
63906;SDS011;50075;49.484;11.238;2023-03-12T11:23:14;103.47;;;5.53;;
63906;SDS011;50075;49.484;11.238;2023-03-12T11:25:40;113.80;;;5.85;;
63906;SDS011;50075;49.484;11.238;2023-03-12T11:28:05;105.50;;;5.40;;
63906;SDS011;50075;49.484;11.238;2023-03-12T11:30:37;118.75;;;6.05;;
63906;SDS011;50075;49.484;11.238;2023-03-12T11:33:03;120.10;;;6.78;;
63906;SDS011;50075;49.484;11.238;2023-03-12T11:38:14;126.68;;;6.70;;
63906;SDS011;50075;49.484;11.238;2023-03-12T11:43:46;99.82;;;5.25;;
63906;SDS011;50075;49.484;11.238;2023-03-12T11:49:07;99.63;;;5.38;;
63906;SDS011;50075;49.484;11.238;2023-03-12T11:56:48;126.97;;;6.10;;
63906;SDS011;50075;49.484;11.238;2023-03-12T12:01:42;111.50;;;5.17;;
63906;SDS011;50075;49.484;11.238;2023-03-12T12:06:55;105.88;;;5.45;;
63906;SDS011;50075;49.484;11.238;2023-03-12T12:10:06;172.15;;;7.00;;
63906;SDS011;50075;49.484;11.238;2023-03-12T12:14:48;192.25;;;9.35;;
63906;SDS011;50075;49.484;11.238;2023-03-12T12:22:55;126.55;;;6.97;;
63906;SDS011;50075;49.484;11.238;2023-03-12T12:27:23;121.30;;;7.30;;
63906;SDS011;50075;49.484;11.238;2023-03-12T12:32:22;115.28;;;7.40;;
63906;SDS011;50075;49.484;11.238;2023-03-12T12:40:06;114.43;;;6.90;;
63906;SDS011;50075;49.484;11.238;2023-03-12T12:42:40;113.00;;;6.50;;
63906;SDS011;50075;49.484;11.238;2023-03-12T12:45:09;140.27;;;7.50;;
63906;SDS011;50075;49.484;11.238;2023-03-12T12:47:40;69.50;;;4.35;;
63906;SDS011;50075;49.484;11.238;2023-03-12T12:50:10;118.38;;;8.63;;
63906;SDS011;50075;49.484;11.238;2023-03-12T12:52:38;124.50;;;8.73;;
63906;SDS011;50075;49.484;11.238;2023-03-12T12:57:41;107.43;;;6.35;;
63906;SDS011;50075;49.484;11.238;2023-03-12T13:02:40;110.50;;;7.20;;
63906;SDS011;50075;49.484;11.238;2023-03-12T13:06:06;105.70;;;8.98;;
63906;SDS011;50075;49.484;11.238;2023-03-12T13:08:00;108.35;;;6.10;;
63906;SDS011;50075;49.484;11.238;2023-03-12T13:12:58;112.70;;;7.70;;
63906;SDS011;50075;49.484;11.238;2023-03-12T13:20:21;115.23;;;9.30;;
63906;SDS011;50075;49.484;11.238;2023-03-12T13:25:20;121.43;;;9.87;;
63906;SDS011;50075;49.484;11.238;2023-03-12T13:27:48;144.43;;;10.27;;
63906;SDS011;50075;49.484;11.238;2023-03-12T13:43:01;122.47;;;10.30;;
63906;SDS011;50075;49.484;11.238;2023-03-12T13:45:29;128.63;;;9.13;;
63906;SDS011;50075;49.484;11.238;2023-03-12T13:47:57;114.07;;;8.88;;
63906;SDS011;50075;49.484;11.238;2023-03-12T13:50:23;109.65;;;9.48;;
63906;SDS011;50075;49.484;11.238;2023-03-12T13:53:00;115.97;;;9.65;;
63906;SDS011;50075;49.484;11.238;2023-03-12T13:55:26;121.82;;;9.05;;
63906;SDS011;50075;49.484;11.238;2023-03-12T13:57:53;130.77;;;9.65;;
63906;SDS011;50075;49.484;11.238;2023-03-12T14:02:48;142.38;;;9.68;;
63906;SDS011;50075;49.484;11.238;2023-03-12T14:05:15;118.05;;;9.80;;
63906;SDS011;50075;49.484;11.238;2023-03-12T14:10:42;108.22;;;9.27;;
63906;SDS011;50075;49.484;11.238;2023-03-12T14:18:17;140.20;;;6.83;;
63906;SDS011;50075;49.484;11.238;2023-03-12T14:20:48;162.88;;;12.00;;
63906;SDS011;50075;49.484;11.238;2023-03-12T14:23:15;177.63;;;15.27;;
63906;SDS011;50075;49.484;11.238;2023-03-12T14:25:42;119.68;;;8.77;;
63906;SDS011;50075;49.484;11.238;2023-03-12T14:28:12;219.32;;;13.23;;
63906;SDS011;50075;49.484;11.238;2023-03-12T14:33:12;135.88;;;9.65;;
63906;SDS011;50075;49.484;11.238;2023-03-12T14:35:40;200.07;;;12.75;;
63906;SDS011;50075;49.484;11.238;2023-03-12T14:38:12;177.18;;;11.63;;
63906;SDS011;50075;49.484;11.238;2023-03-12T14:40:42;224.65;;;12.07;;
63906;SDS011;50075;49.484;11.238;2023-03-12T14:43:21;179.13;;;10.52;;
63906;SDS011;50075;49.484;11.238;2023-03-12T14:45:48;136.43;;;8.57;;
63906;SDS011;50075;49.484;11.238;2023-03-12T14:48:14;209.27;;;11.15;;
63906;SDS011;50075;49.484;11.238;2023-03-12T14:50:44;256.55;;;11.32;;
63906;SDS011;50075;49.484;11.238;2023-03-12T14:53:18;167.57;;;8.15;;
63906;SDS011;50075;49.484;11.238;2023-03-12T14:55:43;191.50;;;9.57;;
63906;SDS011;50075;49.484;11.238;2023-03-12T14:58:16;239.35;;;12.27;;
63906;SDS011;50075;49.484;11.238;2023-03-12T15:00:42;180.02;;;11.05;;
63906;SDS011;50075;49.484;11.238;2023-03-12T15:03:10;184.57;;;10.00;;
63906;SDS011;50075;49.484;11.238;2023-03-12T15:05:37;168.80;;;9.38;;
63906;SDS011;50075;49.484;11.238;2023-03-12T15:08:08;231.35;;;11.18;;
63906;SDS011;50075;49.484;11.238;2023-03-12T15:10:34;128.80;;;7.82;;
63906;SDS011;50075;49.484;11.238;2023-03-12T15:13:00;114.72;;;7.57;;
63906;SDS011;50075;49.484;11.238;2023-03-12T15:15:39;139.88;;;8.35;;
63906;SDS011;50075;49.484;11.238;2023-03-12T15:18:50;185.57;;;10.43;;
63906;SDS011;50075;49.484;11.238;2023-03-12T15:20:57;176.45;;;9.75;;
63906;SDS011;50075;49.484;11.238;2023-03-12T15:23:23;177.38;;;9.80;;
63906;SDS011;50075;49.484;11.238;2023-03-12T15:28:33;128.18;;;7.78;;
63906;SDS011;50075;49.484;11.238;2023-03-12T15:33:29;171.43;;;8.27;;
63906;SDS011;50075;49.484;11.238;2023-03-12T15:36:05;230.98;;;12.23;;
63906;SDS011;50075;49.484;11.238;2023-03-12T15:38:43;132.85;;;7.10;;
63906;SDS011;50075;49.484;11.238;2023-03-12T15:41:15;121.53;;;7.72;;
63906;SDS011;50075;49.484;11.238;2023-03-12T15:43:41;121.43;;;7.95;;
63906;SDS011;50075;49.484;11.238;2023-03-12T15:46:09;113.00;;;7.18;;
63906;SDS011;50075;49.484;11.238;2023-03-12T15:48:37;131.15;;;8.57;;
63906;SDS011;50075;49.484;11.238;2023-03-12T15:51:11;158.68;;;9.68;;
63906;SDS011;50075;49.484;11.238;2023-03-12T15:53:37;139.63;;;9.23;;
63906;SDS011;50075;49.484;11.238;2023-03-12T15:58:35;146.50;;;9.13;;
63906;SDS011;50075;49.484;11.238;2023-03-12T16:03:34;167.43;;;10.02;;
63906;SDS011;50075;49.484;11.238;2023-03-12T16:05:59;181.68;;;10.27;;